createdAt,value
2018-06-12T05:03:06.743Z,19.59
2018-06-12T05:08:10.090Z,19.68
2018-06-12T05:13:14.178Z,19.73
2018-06-12T05:18:17.507Z,19.89
2018-06-12T05:23:20.839Z,19.86
2018-06-12T05:28:24.938Z,19.89
2018-06-12T05:33:28.280Z,19.77
2018-06-12T05:38:32.391Z,19.88
2018-06-12T05:43:35.729Z,20.06
2018-06-12T05:48:39.842Z,20.09
2018-06-12T05:53:43.221Z,19.80
2018-06-12T05:58:46.549Z,19.53
2018-06-12T06:03:49.890Z,19.50
2018-06-12T06:08:53.219Z,19.51
2018-06-12T06:13:56.562Z,19.62
2018-06-12T06:18:59.886Z,19.60
2018-06-12T06:24:03.224Z,19.88
2018-06-12T06:29:06.559Z,19.98
2018-06-12T06:34:10.677Z,19.94
2018-06-12T06:39:14.028Z,20.11
2018-06-12T06:44:17.359Z,20.01
2018-06-12T06:49:20.709Z,20.09
2018-06-12T06:54:24.037Z,20.25
2018-06-12T06:59:28.128Z,20.31
2018-06-12T07:04:31.450Z,20.45
2018-06-12T07:09:34.785Z,20.36
2018-06-12T07:14:38.899Z,20.34
2018-06-12T07:19:42.229Z,20.58
2018-06-12T07:24:45.550Z,20.62
2018-06-12T07:29:49.644Z,20.11
2018-06-12T07:34:52.978Z,21.06
2018-06-12T07:39:56.319Z,21.09
2018-06-12T07:45:00.420Z,21.34
2018-06-12T07:50:03.760Z,21.69
2018-06-12T07:55:07.139Z,21.65
2018-06-12T08:00:10.437Z,21.69
2018-06-12T08:05:13.780Z,21.65
2018-06-12T08:10:17.112Z,22.08
2018-06-12T08:15:21.204Z,22.07
2018-06-12T08:20:24.546Z,22.36
2018-06-12T08:25:28.635Z,22.22
2018-06-12T08:30:32.004Z,22.32
2018-06-12T08:35:36.123Z,22.62
2018-06-12T08:40:39.403Z,22.82
2018-06-12T08:45:42.746Z,22.87
2018-06-12T08:50:46.836Z,22.83
2018-06-12T08:55:50.210Z,22.82
2018-06-12T09:00:53.964Z,22.89
2018-06-12T09:05:57.306Z,23.08
2018-06-12T09:11:00.787Z,23.44
2018-06-12T09:16:04.157Z,23.74
2018-06-12T09:21:08.263Z,24.09
2018-06-12T09:26:11.594Z,24.14
2018-06-12T09:31:15.706Z,23.77
2018-06-12T09:36:19.185Z,23.89
2018-06-12T09:41:22.534Z,23.89
2018-06-12T09:46:25.866Z,23.66
2018-06-12T09:51:29.959Z,23.78
2018-06-12T09:56:33.305Z,23.33
2018-06-12T10:01:37.402Z,23.75
2018-06-12T10:06:40.735Z,24.05
2018-06-12T10:11:44.084Z,23.90
2018-06-12T10:16:47.410Z,24.27
2018-06-12T10:21:50.742Z,24.64
2018-06-12T10:26:54.094Z,25.02
2018-06-12T10:31:58.221Z,25.17
2018-06-12T10:37:01.568Z,24.90
2018-06-12T10:42:04.918Z,24.23
2018-06-12T10:47:08.251Z,24.63
2018-06-12T10:52:11.583Z,24.71
2018-06-12T10:57:15.698Z,24.60
2018-06-12T11:02:19.051Z,24.49
2018-06-12T11:07:22.388Z,24.73
2018-06-12T11:12:25.730Z,25.04
2018-06-12T11:17:29.319Z,25.40
2018-06-12T11:22:32.671Z,25.60
2018-06-12T11:27:36.002Z,25.24
2018-06-12T11:32:39.338Z,25.36
2018-06-12T11:37:42.671Z,25.68
2018-06-12T11:42:46.007Z,25.96
2018-06-12T11:47:49.361Z,26.11
2018-06-12T11:52:52.699Z,25.71
2018-06-12T11:57:56.035Z,26.17
2018-06-12T12:02:59.399Z,26.92
2018-06-12T12:08:02.722Z,27.03
2018-06-12T12:13:06.054Z,26.63
2018-06-12T12:18:09.386Z,26.50
2018-06-12T12:23:12.739Z,26.26
2018-06-12T12:28:16.839Z,26.49
2018-06-12T12:33:20.184Z,27.20
2018-06-12T12:38:23.530Z,26.24
2018-06-12T12:43:26.863Z,26.56
2018-06-12T12:48:30.198Z,26.61
2018-06-12T12:53:33.530Z,26.32
2018-06-12T12:58:36.862Z,26.54
2018-06-12T13:03:40.191Z,27.25
2018-06-12T13:08:43.520Z,27.27
2018-06-12T13:13:46.862Z,27.25
2018-06-12T13:18:50.210Z,26.74
2018-06-12T13:23:53.558Z,26.74
2018-06-12T13:28:56.890Z,26.16
2018-06-12T13:34:00.254Z,26.18
2018-06-12T13:39:06.808Z,26.21
2018-06-12T13:44:10.153Z,26.43
2018-06-12T13:49:13.486Z,26.23
2018-06-12T13:54:16.817Z,25.35
2018-06-12T13:59:20.155Z,25.19
2018-06-12T14:04:23.496Z,25.40
2018-06-12T14:09:26.838Z,25.30
2018-06-12T14:14:30.158Z,25.37
2018-06-12T14:19:33.487Z,25.33
2018-06-12T14:24:36.822Z,25.14
2018-06-12T14:29:40.923Z,25.01
2018-06-12T14:34:44.251Z,24.76
2018-06-12T14:39:48.354Z,24.53
2018-06-12T14:44:51.684Z,24.38
2018-06-12T14:49:55.023Z,24.12
2018-06-12T14:54:58.359Z,24.01
2018-06-12T15:00:01.693Z,23.83
2018-06-12T15:05:05.014Z,23.62
2018-06-12T15:10:08.338Z,23.45
2018-06-12T15:15:11.676Z,23.23
2018-06-12T15:20:15.014Z,23.17
2018-06-12T15:25:19.158Z,23.06
2018-06-12T15:30:22.447Z,22.08
2018-06-12T15:35:26.541Z,21.02
2018-06-12T15:40:29.886Z,20.46
2018-06-12T15:45:33.975Z,19.58
2018-06-12T15:50:37.340Z,19.64
2018-06-12T15:55:40.711Z,19.61
2018-06-12T16:00:57.459Z,19.89
2018-06-12T16:06:00.787Z,19.29
2018-06-12T16:11:04.916Z,18.84
2018-06-12T16:16:09.015Z,18.96
2018-06-12T16:21:12.363Z,18.87
2018-06-12T16:26:16.478Z,18.76
2018-06-12T16:31:19.943Z,18.63
2018-06-12T16:36:23.443Z,18.67
2018-06-12T16:41:27.054Z,18.71
2018-06-12T16:46:31.138Z,18.79
2018-06-12T16:51:34.470Z,18.70
2018-06-12T16:56:37.830Z,18.66
2018-06-12T17:01:41.160Z,17.99
2018-06-12T17:06:44.482Z,17.79
2018-06-12T17:11:47.819Z,17.90
2018-06-12T17:16:51.146Z,17.70
2018-06-12T17:21:55.441Z,17.70
2018-06-12T17:26:58.799Z,17.53
2018-06-12T17:32:03.037Z,17.54
2018-06-12T17:37:07.137Z,17.61
2018-06-12T17:42:10.473Z,17.40
2018-06-12T17:47:14.576Z,17.71
2018-06-12T17:52:17.911Z,17.72
2018-06-12T17:57:22.019Z,17.61
2018-06-12T18:02:25.347Z,17.59
2018-06-12T18:07:28.671Z,17.76
2018-06-12T18:12:32.006Z,17.20
2018-06-12T18:17:35.356Z,17.08
2018-06-12T18:22:38.695Z,17.01
2018-06-12T18:27:42.017Z,17.24
2018-06-12T18:32:46.114Z,17.31
2018-06-12T18:37:49.570Z,17.57
2018-06-12T18:42:53.803Z,17.47
2018-06-12T18:47:58.042Z,17.42
2018-06-12T18:53:01.623Z,17.34
2018-06-12T18:58:04.969Z,17.48
2018-06-12T19:03:09.072Z,17.48
2018-06-12T19:08:12.431Z,17.55
2018-06-12T19:13:15.897Z,17.63
2018-06-12T19:18:19.590Z,17.66
2018-06-12T19:23:22.935Z,17.66
2018-06-12T19:28:26.263Z,17.76
2018-06-12T19:33:29.602Z,17.87
2018-06-12T19:38:32.935Z,17.92
2018-06-12T19:43:36.271Z,17.95
2018-06-12T19:48:39.613Z,17.97
2018-06-12T19:53:43.734Z,17.99
2018-06-12T19:58:47.803Z,17.96
2018-06-12T20:03:51.143Z,17.75
2018-06-12T20:08:57.031Z,17.66
2018-06-12T20:14:00.367Z,17.43
2018-06-12T20:19:06.136Z,17.56
2018-06-12T20:24:10.266Z,17.64
2018-06-12T20:29:13.604Z,17.63
2018-06-12T20:34:17.701Z,17.76
2018-06-12T20:39:21.061Z,17.75
2018-06-12T20:44:24.706Z,17.76
2018-06-12T20:49:28.403Z,17.78
2018-06-12T20:54:31.736Z,17.80
2018-06-12T20:59:38.230Z,17.84
2018-06-12T21:04:41.751Z,17.85
2018-06-12T21:09:45.274Z,17.82
2018-06-12T21:14:48.605Z,17.80
2018-06-12T21:19:51.957Z,17.88
2018-06-12T21:24:55.287Z,17.86
2018-06-12T21:30:03.439Z,17.87
2018-06-12T21:35:06.795Z,17.83
2018-06-12T21:40:20.895Z,17.84
2018-06-12T21:45:24.233Z,17.84
2018-06-12T21:50:27.560Z,17.84
2018-06-12T21:55:30.888Z,17.75
2018-06-12T22:00:34.258Z,17.58
2018-06-12T22:05:37.630Z,17.65
2018-06-12T22:10:41.776Z,17.72
2018-06-12T22:15:45.112Z,17.65
2018-06-12T22:20:48.433Z,17.67
2018-06-12T22:25:51.754Z,17.50
